createdAt,value
2023-05-16T00:00:35.333Z,102426.69
2023-05-16T00:03:21.488Z,102424.84
2023-05-16T00:06:07.216Z,102421.06
2023-05-16T00:08:53.046Z,102421.84
2023-05-16T00:11:38.446Z,102427.84
2023-05-16T00:14:26.376Z,102430.22
2023-05-16T00:17:12.347Z,102433.47
2023-05-16T00:20:00.727Z,102427.22
2023-05-16T00:22:46.362Z,102427.34
2023-05-16T00:25:31.709Z,102431.63
2023-05-16T00:28:17.264Z,102426.38
2023-05-16T00:31:03.048Z,102430.63
2023-05-16T00:33:48.490Z,102435.03
2023-05-16T00:36:35.883Z,102421.78
2023-05-16T00:39:21.352Z,102429.16
2023-05-16T00:42:07.094Z,102425.44
2023-05-16T00:44:52.444Z,102424.38
2023-05-16T00:47:38.091Z,102423.41
2023-05-16T00:50:24.639Z,102425.88
2023-05-16T00:53:10.544Z,102428.25
2023-05-16T00:55:57.179Z,102424.50
2023-05-16T00:58:42.728Z,102429.53
2023-05-16T01:01:28.796Z,102429.41
2023-05-16T01:04:14.612Z,102435.28
2023-05-16T01:07:01.501Z,102431.75
2023-05-16T01:09:46.867Z,102431.66
2023-05-16T01:12:53.612Z,102426.41
2023-05-16T01:15:56.714Z,102425.34
2023-05-16T01:18:56.300Z,102415.78
2023-05-16T01:22:02.923Z,102415.56
2023-05-16T01:25:10.455Z,102414.56
2023-05-16T01:27:58.628Z,102406.63
2023-05-16T01:30:45.046Z,102413.41
2023-05-16T01:33:32.197Z,102409.72
2023-05-16T01:36:24.823Z,102406.75
2023-05-16T01:39:20.082Z,102412.50
2023-05-16T01:42:14.540Z,102418.28
2023-05-16T01:45:18.194Z,102415.44
2023-05-16T01:48:10.973Z,102417.72
2023-05-16T01:50:58.004Z,102416.53
2023-05-16T01:53:45.460Z,102429.88
2023-05-16T01:56:32.670Z,102422.63
2023-05-16T01:59:21.316Z,102424.09
2023-05-16T02:02:07.040Z,102427.22
2023-05-16T02:04:52.526Z,102426.84
2023-05-16T02:07:38.565Z,102431.97
2023-05-16T02:10:24.418Z,102430.88
2023-05-16T02:13:10.089Z,102436.06
2023-05-16T02:15:55.524Z,102429.09
2023-05-16T02:18:41.482Z,102429.91
2023-05-16T02:21:27.234Z,102435.91
2023-05-16T02:24:12.791Z,102448.78
2023-05-16T02:26:58.357Z,102447.75
2023-05-16T02:29:43.749Z,102444.97
2023-05-16T02:32:29.058Z,102449.19
2023-05-16T02:35:14.754Z,102441.19
2023-05-16T02:38:00.374Z,102437.56
2023-05-16T02:40:46.215Z,102430.41
2023-05-16T02:43:32.088Z,102443.22
2023-05-16T02:46:30.716Z,102437.91
2023-05-16T02:49:17.112Z,102431.88
2023-05-16T02:52:03.659Z,102433.44
2023-05-16T02:55:09.204Z,102432.53
2023-05-16T02:57:55.676Z,102431.66
2023-05-16T03:00:40.929Z,102428.81
2023-05-16T03:03:28.036Z,102433.75
2023-05-16T03:06:13.439Z,102430.06
2023-05-16T03:08:58.791Z,102437.66
2023-05-16T03:11:45.212Z,102439.19
2023-05-16T03:14:30.610Z,102445.22
2023-05-16T03:17:16.222Z,102447.66
2023-05-16T03:20:01.683Z,102449.19
2023-05-16T03:22:47.109Z,102451.63
2023-05-16T03:25:32.538Z,102454.00
2023-05-16T03:28:18.448Z,102450.28
2023-05-16T03:31:04.057Z,102455.22
2023-05-16T03:33:49.361Z,102458.47
2023-05-16T03:36:36.014Z,102463.56
2023-05-16T03:39:21.936Z,102451.44
2023-05-16T03:42:07.765Z,102453.94
2023-05-16T03:44:53.171Z,102451.28
2023-05-16T03:47:38.680Z,102464.94
2023-05-16T03:50:24.035Z,102449.22
2023-05-16T03:53:10.009Z,102456.81
2023-05-16T03:55:55.483Z,102457.53
2023-05-16T03:58:41.121Z,102458.38
2023-05-16T04:01:26.814Z,102456.50
2023-05-16T04:04:12.550Z,102465.88
2023-05-16T04:06:58.323Z,102462.25
2023-05-16T04:09:43.800Z,102464.69
2023-05-16T04:12:29.146Z,102467.91
2023-05-16T04:15:14.558Z,102464.44
2023-05-16T04:17:59.910Z,102467.75
2023-05-16T04:20:47.669Z,102465.09
2023-05-16T04:23:33.095Z,102461.59
2023-05-16T04:26:18.706Z,102460.72
2023-05-16T04:29:04.448Z,102467.41
2023-05-16T04:31:50.093Z,102468.16
2023-05-16T04:34:39.798Z,102471.56
2023-05-16T04:37:25.691Z,102468.00
2023-05-16T04:40:13.096Z,102476.66
2023-05-16T04:42:58.239Z,102478.50
2023-05-16T04:45:43.629Z,102476.88
2023-05-16T04:48:29.049Z,102480.44
2023-05-16T04:51:14.645Z,102477.19
2023-05-16T04:54:01.090Z,102482.53
2023-05-16T04:56:46.656Z,102494.72
2023-05-16T04:59:32.132Z,102492.28
2023-05-16T05:02:17.851Z,102499.38
2023-05-16T05:05:03.753Z,102491.78
2023-05-16T05:07:49.379Z,102498.03
2023-05-16T05:10:34.803Z,102493.88
2023-05-16T05:13:20.172Z,102499.22
2023-05-16T05:16:06.127Z,102500.41
2023-05-16T05:18:51.774Z,102495.47
2023-05-16T05:21:37.815Z,102494.00
2023-05-16T05:24:23.299Z,102504.81
2023-05-16T05:27:08.740Z,102511.19
2023-05-16T05:29:54.050Z,102511.47
2023-05-16T05:32:39.534Z,102513.56
2023-05-16T05:35:25.018Z,102510.41
2023-05-16T05:38:10.462Z,102518.63
2023-05-16T05:40:55.975Z,102512.88
2023-05-16T05:43:41.454Z,102516.69
2023-05-16T05:46:27.137Z,102515.22
2023-05-16T05:49:13.131Z,102517.38
2023-05-16T05:51:58.484Z,102524.63
2023-05-16T05:54:44.103Z,102523.19
2023-05-16T05:57:29.874Z,102521.78
2023-05-16T06:00:15.599Z,102524.66
2023-05-16T06:03:01.393Z,102518.94
2023-05-16T06:05:46.754Z,102518.34
2023-05-16T06:08:32.066Z,102519.47
2023-05-16T06:11:17.231Z,102535.41
2023-05-16T06:14:02.811Z,102531.28
2023-05-16T06:16:48.333Z,102535.91
2023-05-16T06:19:33.798Z,102531.84
2023-05-16T06:22:19.332Z,102536.56
2023-05-16T06:25:04.867Z,102535.94
2023-05-16T06:27:50.804Z,102539.78
2023-05-16T06:30:36.475Z,102549.53
2023-05-16T06:33:21.834Z,102544.63
2023-05-16T06:36:07.636Z,102548.44
2023-05-16T06:38:53.429Z,102555.66
2023-05-16T06:41:38.897Z,102555.31
2023-05-16T06:44:24.843Z,102559.06
2023-05-16T06:47:10.129Z,102561.97
2023-05-16T06:49:55.849Z,102553.63
2023-05-16T06:52:42.297Z,102554.09
2023-05-16T06:55:28.120Z,102557.88
2023-05-16T06:58:14.130Z,102550.53
2023-05-16T07:00:59.800Z,102561.53
2023-05-16T07:03:45.374Z,102556.03
2023-05-16T07:06:31.238Z,102561.00
2023-05-16T07:09:16.566Z,102555.22
2023-05-16T07:12:02.033Z,102549.47
2023-05-16T07:14:47.897Z,102556.75
2023-05-16T07:17:33.618Z,102558.91
2023-05-16T07:20:18.901Z,102553.91
2023-05-16T07:23:04.338Z,102558.69
2023-05-16T07:25:50.153Z,102566.81
2023-05-16T07:28:38.005Z,102566.09
2023-05-16T07:31:24.386Z,102563.00
2023-05-16T07:34:11.209Z,102563.34
2023-05-16T07:36:56.728Z,102548.84
2023-05-16T07:39:42.863Z,102552.59
2023-05-16T07:42:28.596Z,102552.97
2023-05-16T07:45:13.975Z,102555.03
2023-05-16T07:48:00.470Z,102549.06
2023-05-16T07:50:46.137Z,102550.16
2023-05-16T07:53:31.548Z,102552.19
2023-05-16T07:56:17.049Z,102551.63
2023-05-16T07:59:03.245Z,102549.25
2023-05-16T08:01:48.758Z,102550.38
2023-05-16T08:04:34.286Z,102547.25
2023-05-16T08:07:19.556Z,102540.59
2023-05-16T08:10:05.566Z,102543.56
2023-05-16T08:12:51.233Z,102543.84
2023-05-16T08:15:37.189Z,102537.28
2023-05-16T08:18:22.882Z,102548.00
2023-05-16T08:21:11.951Z,102535.25
2023-05-16T08:23:57.919Z,102537.28
2023-05-16T08:26:43.286Z,102535.06
2023-05-16T08:29:28.736Z,102534.72
2023-05-16T08:32:14.010Z,102537.56
2023-05-16T08:35:00.473Z,102535.31
2023-05-16T08:37:46.156Z,102534.59
2023-05-16T08:40:31.742Z,102534.03
2023-05-16T08:43:17.256Z,102531.66
2023-05-16T08:46:02.863Z,102531.81
2023-05-16T08:48:52.793Z,102531.88
2023-05-16T08:51:38.815Z,102530.34
2023-05-16T08:54:26.233Z,102518.22
2023-05-16T08:57:14.675Z,102527.19
2023-05-16T09:00:00.263Z,102531.69
2023-05-16T09:02:46.363Z,102534.53
2023-05-16T09:05:33.149Z,102521.63
2023-05-16T09:08:18.626Z,102527.00
2023-05-16T09:11:04.295Z,102516.69
2023-05-16T09:13:50.158Z,102521.91
2023-05-16T09:16:35.794Z,102519.47
2023-05-16T09:19:23.570Z,102523.88
2023-05-16T09:22:11.646Z,102511.03
2023-05-16T09:25:00.581Z,102525.28
2023-05-16T09:27:52.626Z,102517.69
2023-05-16T09:30:39.644Z,102523.59
2023-05-16T09:33:28.253Z,102512.38
2023-05-16T09:36:14.764Z,102523.16
2023-05-16T09:39:01.872Z,102524.88
2023-05-16T09:41:52.509Z,102532.16
2023-05-16T09:44:38.404Z,102539.47
2023-05-16T09:47:24.066Z,102536.06
2023-05-16T09:50:09.803Z,102531.53
2023-05-16T09:52:56.956Z,102526.09
2023-05-16T09:55:42.391Z,102527.69
2023-05-16T09:58:38.717Z,102539.94
2023-05-16T10:01:24.994Z,102525.28
2023-05-16T10:04:14.399Z,102530.06
2023-05-16T10:07:05.558Z,102527.72
2023-05-16T10:09:52.845Z,102530.63
2023-05-16T10:12:38.950Z,102527.34
2023-05-16T10:15:25.146Z,102527.34
2023-05-16T10:18:13.540Z,102527.59
2023-05-16T10:21:11.810Z,102532.13
2023-05-16T10:24:02.961Z,102523.50
2023-05-16T10:26:49.626Z,102530.78
2023-05-16T10:29:46.427Z,102519.75
2023-05-16T10:32:43.081Z,102534.75
2023-05-16T10:35:29.105Z,102536.38
2023-05-16T10:38:20.034Z,102538.03
2023-05-16T10:41:07.218Z,102534.66
2023-05-16T10:43:59.649Z,102526.06
2023-05-16T10:46:47.553Z,102535.75
2023-05-16T10:49:33.410Z,102530.38
2023-05-16T10:52:19.020Z,102533.94
2023-05-16T10:55:07.170Z,102531.31
2023-05-16T10:57:52.707Z,102534.03
2023-05-16T11:00:40.092Z,102536.63
2023-05-16T11:03:28.729Z,102535.94
2023-05-16T11:06:21.413Z,102542.06
2023-05-16T11:09:08.245Z,102533.13
2023-05-16T11:11:53.814Z,102532.88
2023-05-16T11:14:47.731Z,102530.47
2023-05-16T11:17:41.125Z,102526.28
2023-05-16T11:20:31.973Z,102520.25
2023-05-16T11:23:17.631Z,102518.53
2023-05-16T11:26:03.510Z,102513.03
2023-05-16T11:28:52.711Z,102508.44
2023-05-16T11:31:38.499Z,102503.16
2023-05-16T11:34:23.847Z,102503.56
2023-05-16T11:37:12.096Z,102497.97
2023-05-16T11:40:02.308Z,102501.59
2023-05-16T11:42:48.482Z,102506.91
2023-05-16T11:45:34.821Z,102507.66
2023-05-16T11:48:32.485Z,102515.47
2023-05-16T11:51:21.568Z,102512.25
2023-05-16T11:54:09.630Z,102508.78
2023-05-16T11:56:55.589Z,102511.28
2023-05-16T11:59:41.570Z,102518.31
2023-05-16T12:02:29.883Z,102505.16
2023-05-16T12:05:17.298Z,102514.84
2023-05-16T12:08:04.878Z,102509.75
2023-05-16T12:10:56.156Z,102510.69
2023-05-16T12:13:41.848Z,102513.28
2023-05-16T12:16:27.598Z,102509.69
2023-05-16T12:19:14.230Z,102506.97
2023-05-16T12:22:00.119Z,102510.41
2023-05-16T12:24:45.997Z,102511.22
2023-05-16T12:27:33.018Z,102500.56
2023-05-16T12:30:19.168Z,102505.94
2023-05-16T12:33:13.061Z,102494.84
2023-05-16T12:35:59.600Z,102502.13
2023-05-16T12:38:47.731Z,102500.59
2023-05-16T12:41:33.185Z,102494.41
2023-05-16T12:44:20.098Z,102511.19
2023-05-16T12:47:12.439Z,102499.78
2023-05-16T12:49:57.725Z,102491.81
2023-05-16T12:53:00.045Z,102507.72
2023-05-16T12:55:46.111Z,102487.44
2023-05-16T12:58:31.915Z,102499.75
2023-05-16T13:01:17.363Z,102491.00
2023-05-16T13:04:04.684Z,102496.25
2023-05-16T13:09:38.953Z,102487.50
2023-05-16T13:12:27.096Z,102490.13
2023-05-16T13:15:12.845Z,102483.97
2023-05-16T13:17:58.346Z,102479.56
2023-05-16T13:20:44.559Z,102489.06
2023-05-16T13:23:30.762Z,102495.03
2023-05-16T13:26:16.367Z,102499.50
2023-05-16T13:29:02.382Z,102492.63
2023-05-16T13:31:48.190Z,102490.97
2023-05-16T13:34:34.109Z,102495.38
2023-05-16T13:37:22.496Z,102498.03
2023-05-16T13:40:11.326Z,102503.28
2023-05-16T13:42:57.609Z,102507.66
2023-05-16T13:45:44.272Z,102503.31
2023-05-16T13:48:29.853Z,102507.66
2023-05-16T13:51:15.597Z,102507.66
2023-05-16T13:54:01.079Z,102504.19
2023-05-16T13:56:46.816Z,102498.03
2023-05-16T13:59:56.749Z,102501.53
2023-05-16T14:02:37.422Z,102499.75
2023-05-16T14:05:23.093Z,102506.81
2023-05-16T14:08:08.929Z,102512.97
2023-05-16T14:10:54.351Z,102505.06
2023-05-16T14:13:42.482Z,102518.25
2023-05-16T14:16:29.512Z,102505.91
2023-05-16T14:19:16.702Z,102504.19
2023-05-16T14:22:03.224Z,102498.00
2023-05-16T14:24:48.801Z,102497.09
2023-05-16T14:27:34.201Z,102494.41
2023-05-16T14:30:19.514Z,102490.56
2023-05-16T14:33:06.242Z,102495.66
2023-05-16T14:35:52.541Z,102499.81
2023-05-16T14:38:38.254Z,102484.78
2023-05-16T14:41:23.746Z,102488.81
2023-05-16T14:44:09.927Z,102488.94
2023-05-16T14:46:55.522Z,102482.84
2023-05-16T14:49:41.679Z,102489.69
2023-05-16T14:52:26.985Z,102480.78
2023-05-16T14:55:12.669Z,102487.84
2023-05-16T14:57:59.973Z,102499.41
2023-05-16T15:00:46.325Z,102490.78
2023-05-16T15:03:43.299Z,102488.19
2023-05-16T15:06:36.664Z,102495.25
2023-05-16T15:09:22.464Z,102499.69
2023-05-16T15:12:08.455Z,102498.88
2023-05-16T15:14:54.034Z,102491.88
2023-05-16T15:17:41.974Z,102492.75
2023-05-16T15:20:28.262Z,102493.63
2023-05-16T15:23:14.054Z,102489.22
2023-05-16T15:25:59.478Z,102486.59
2023-05-16T15:28:44.887Z,102489.22
2023-05-16T15:31:32.313Z,102490.13
2023-05-16T15:34:18.106Z,102481.31
2023-05-16T15:37:03.985Z,102483.06
2023-05-16T15:39:49.438Z,102494.50
2023-05-16T15:42:35.504Z,102488.34
2023-05-16T15:45:21.276Z,102483.06
2023-05-16T15:48:07.218Z,102486.63
2023-05-16T15:50:53.207Z,102476.94
2023-05-16T15:53:38.847Z,102479.56
2023-05-16T15:56:24.371Z,102491.84
2023-05-16T15:59:09.793Z,102488.34
2023-05-16T16:01:55.645Z,102486.56
2023-05-16T16:04:41.194Z,102489.19
2023-05-16T16:07:26.914Z,102490.06
2023-05-16T16:10:12.650Z,102492.69
2023-05-16T16:13:00.232Z,102487.44
2023-05-16T16:15:45.953Z,102485.69
2023-05-16T16:18:31.376Z,102491.00
2023-05-16T16:21:16.882Z,102490.13
2023-05-16T16:24:02.419Z,102484.84
2023-05-16T16:26:47.667Z,102497.13
2023-05-16T16:29:33.166Z,102490.97
2023-05-16T16:32:18.400Z,102487.44
2023-05-16T16:35:05.513Z,102494.50
2023-05-16T16:38:05.643Z,102487.50
2023-05-16T16:40:52.384Z,102490.00
2023-05-16T16:43:40.870Z,102497.84
2023-05-16T16:46:27.148Z,102498.56
2023-05-16T16:49:12.740Z,102488.84
2023-05-16T16:51:58.636Z,102482.84
2023-05-16T16:54:43.940Z,102481.28
2023-05-16T16:57:29.334Z,102487.50
2023-05-16T17:00:15.402Z,102489.22
2023-05-16T17:03:01.020Z,102482.13
2023-05-16T17:05:46.867Z,102492.53
2023-05-16T17:08:32.133Z,102491.47
2023-05-16T17:11:22.914Z,102483.47
2023-05-16T17:14:10.798Z,102480.63
2023-05-16T17:16:56.844Z,102487.25
2023-05-16T17:19:43.187Z,102492.50
2023-05-16T17:22:28.553Z,102490.78
2023-05-16T17:25:13.967Z,102492.38
2023-05-16T17:27:59.708Z,102488.84
2023-05-16T17:30:45.646Z,102492.72
2023-05-16T17:33:31.296Z,102490.03
2023-05-16T17:36:17.065Z,102491.84
2023-05-16T17:39:02.379Z,102496.38
2023-05-16T17:41:48.103Z,102502.63
2023-05-16T17:44:33.562Z,102499.34
2023-05-16T17:47:19.811Z,102499.50
2023-05-16T17:50:08.719Z,102498.75
2023-05-16T17:52:55.070Z,102505.03
2023-05-16T17:55:40.402Z,102498.03
2023-05-16T17:58:25.758Z,102510.31
2023-05-16T18:01:13.078Z,102510.31
2023-05-16T18:03:58.934Z,102509.38
2023-05-16T18:06:46.156Z,102504.97
2023-05-16T18:09:31.907Z,102511.94
2023-05-16T18:12:17.350Z,102505.78
2023-05-16T18:15:04.051Z,102500.47
2023-05-16T18:17:49.683Z,102508.31
2023-05-16T18:20:35.664Z,102507.38
2023-05-16T18:23:21.560Z,102506.53
2023-05-16T18:26:06.987Z,102505.59
2023-05-16T18:28:52.239Z,102514.34
2023-05-16T18:31:41.352Z,102516.97
2023-05-16T18:34:26.667Z,102516.94
2023-05-16T18:37:12.185Z,102512.50
2023-05-16T18:39:57.879Z,102509.81
2023-05-16T18:42:43.205Z,102508.00
2023-05-16T18:45:30.207Z,102517.63
2023-05-16T18:48:15.947Z,102514.06
2023-05-16T18:51:01.789Z,102514.06
2023-05-16T18:53:47.389Z,102516.72
2023-05-16T18:56:32.808Z,102517.53
2023-05-16T18:59:18.901Z,102507.84
2023-05-16T19:02:04.683Z,102513.94
2023-05-16T19:04:50.497Z,102507.72
2023-05-16T19:07:38.569Z,102514.66
2023-05-16T19:10:25.262Z,102519.00
2023-05-16T19:13:11.120Z,102517.22
2023-05-16T19:15:56.533Z,102522.44
2023-05-16T19:18:42.188Z,102517.13
2023-05-16T19:21:27.839Z,102523.28
2023-05-16T19:24:13.419Z,102522.38
2023-05-16T19:26:58.957Z,102529.41
2023-05-16T19:29:44.782Z,102522.34
2023-05-16T19:32:30.467Z,102523.19
2023-05-16T19:35:16.024Z,102528.41
2023-05-16T19:38:01.370Z,102531.81
2023-05-16T19:40:47.118Z,102538.66
2023-05-16T19:43:33.885Z,102533.31
2023-05-16T19:46:19.403Z,102535.78
2023-05-16T19:49:06.651Z,102530.47
2023-05-16T19:51:52.146Z,102534.78
2023-05-16T19:54:37.578Z,102541.72
2023-05-16T19:57:22.948Z,102538.94
2023-05-16T20:00:09.657Z,102536.19
2023-05-16T20:03:01.215Z,102531.72
2023-05-16T20:05:46.891Z,102538.56
2023-05-16T20:08:32.363Z,102542.00
2023-05-16T20:11:19.166Z,102543.75
2023-05-16T20:14:04.800Z,102547.19
2023-05-16T20:16:51.495Z,102544.47
2023-05-16T20:19:37.643Z,102559.22
2023-05-16T20:22:23.592Z,102548.69
2023-05-16T20:25:13.168Z,102561.75
2023-05-16T20:28:01.055Z,102562.53
2023-05-16T20:30:46.584Z,102566.78
2023-05-16T20:33:32.075Z,102568.53
2023-05-16T20:36:17.691Z,102568.47
2023-05-16T20:39:03.957Z,102585.88
2023-05-16T20:41:49.503Z,102576.19
2023-05-16T20:44:34.787Z,102576.00
2023-05-16T20:47:20.454Z,102573.22
2023-05-16T20:50:06.662Z,102573.03
2023-05-16T20:52:52.197Z,102585.03
2023-05-16T20:55:37.591Z,102578.72
2023-05-16T20:58:23.167Z,102579.50
2023-05-16T21:01:09.156Z,102581.03
2023-05-16T21:03:54.327Z,102584.25
2023-05-16T21:06:39.777Z,102584.09
2023-05-16T21:09:25.023Z,102578.72
2023-05-16T21:12:10.442Z,102582.72
2023-05-16T21:14:56.226Z,102581.44
2023-05-16T21:17:42.314Z,102595.88
2023-05-16T21:20:30.173Z,102593.66
2023-05-16T21:23:18.219Z,102599.31
2023-05-16T21:26:03.512Z,102602.38
2023-05-16T21:28:55.170Z,102596.78
2023-05-16T21:31:41.820Z,102599.06
2023-05-16T21:34:27.394Z,102604.03
2023-05-16T21:37:12.902Z,102604.84
2023-05-16T21:39:58.429Z,102595.91
2023-05-16T21:42:44.084Z,102599.97
2023-05-16T21:45:29.886Z,102599.56
2023-05-16T21:48:15.698Z,102601.78
2023-05-16T21:51:01.912Z,102597.09
2023-05-16T21:53:47.255Z,102602.88
2023-05-16T21:56:32.507Z,102603.81
2023-05-16T21:59:17.867Z,102602.22
2023-05-16T22:02:03.345Z,102606.72
2023-05-16T22:04:53.491Z,102604.09
2023-05-16T22:07:38.944Z,102604.88
2023-05-16T22:10:24.328Z,102605.31
2023-05-16T22:13:09.796Z,102613.56
2023-05-16T22:16:04.040Z,102612.28
2023-05-16T22:18:50.835Z,102613.63
2023-05-16T22:21:36.596Z,102620.16
2023-05-16T22:24:22.365Z,102620.59
2023-05-16T22:27:07.905Z,102614.13
2023-05-16T22:29:53.398Z,102618.13
2023-05-16T22:32:39.000Z,102616.03
2023-05-16T22:35:31.669Z,102617.50
2023-05-16T22:38:17.370Z,102614.66
2023-05-16T22:41:02.661Z,102621.19
2023-05-16T22:43:48.001Z,102621.69
2023-05-16T22:46:33.222Z,102613.44
2023-05-16T22:49:19.105Z,102613.19
2023-05-16T22:52:04.789Z,102607.75
2023-05-16T22:54:50.297Z,102615.50
2023-05-16T22:57:36.070Z,102620.81
2023-05-16T23:00:23.650Z,102618.59
2023-05-16T23:03:08.880Z,102625.78
2023-05-16T23:05:55.793Z,102624.78
2023-05-16T23:08:42.419Z,102618.47
2023-05-16T23:11:27.625Z,102622.44
2023-05-16T23:14:13.182Z,102626.50
2023-05-16T23:16:58.457Z,102620.91
2023-05-16T23:19:43.790Z,102619.03
2023-05-16T23:22:29.529Z,102626.56
2023-05-16T23:25:14.853Z,102629.91
2023-05-16T23:28:00.315Z,102628.75
2023-05-16T23:30:45.771Z,102633.78
2023-05-16T23:33:31.562Z,102636.28
2023-05-16T23:36:16.803Z,102644.47
2023-05-16T23:39:02.431Z,102645.66
2023-05-16T23:41:50.079Z,102644.53
2023-05-16T23:44:35.499Z,102644.31
2023-05-16T23:47:20.907Z,102649.63
2023-05-16T23:50:07.189Z,102658.66
2023-05-16T23:52:52.962Z,102655.38
2023-05-16T23:55:38.442Z,102653.75
2023-05-16T23:58:23.748Z,102661.38
